EDDM/MUC METAR and TAF weather

Enter ICAO airport designator
Station Type Date Time Source
EDDM METAR 2022/06/26 07:20 UTC NOAA

EDDM 260720Z AUTO VRB02KT CAVOK 22/16 Q1017 NOSIG


Station Type Date Time Source
EDDM Decoded METAR 2022/06/26 07:20 UTC NOAA

Munchen, Germany (EDDM) 48-21N 011-47E
Jun 26, 2022 - 03:20 AM EDT / 2022.06.26 0720 UTC
Wind: Variable at 2 MPH (2 KT):0
Visibility: greater than 7 mile(s):0
Temperature: 71 F (22 C)
Dew Point: 60 F (16 C)
Relative Humidity: 68%
Pressure (altimeter): 30.03 in. Hg (1017 hPa)
ob: EDDM 260720Z AUTO VRB02KT CAVOK 22/16 Q1017 NOSIG
cycle: 7

Station Type Date Time Source
EDDM TAF 2022/06/26 06:27 UTC NOAA

TAF EDDM 260500Z 2606/2712 VRB03KT CAVOK
BECMG 2606/2608 08007KT
BECMG 2618/2620 VRB03KT
BECMG 2703/2705 25005KT
BECMG 2710/2712 05007KT

Example: see airport list